NCAR-RAP Real-Time Weather Data

Output produced by METARs form (26 September 2018  03:09 UTC)
found at http://weather.rap.ucar.edu/surface/
 
KGTF 260253Z 15007KT 10SM CLR 09/02 A3015 RMK AO2 SLP224 T00890022 58007
KGTF 260153Z 15004KT 10SM CLR 10/02 A3017 RMK AO2 SLP231 T01000022
KGTF 260053Z 19003KT 10SM CLR 13/00 A3017 RMK AO2 SLP227 T01330000
KGTF 252353Z 29004KT 10SM CLR 16/M02 A3017 RMK AO2 SLP221 T01611022 10172 20117 58008
KGTF 252253Z 29012G18KT 10SM CLR 17/M02 A3018 RMK AO2 SLP223 T01671022
KGTF 252153Z 26011G21KT 10SM BKN075 17/M02 A3020 RMK AO2 SLP227 T01671017
KGTF 252053Z 29008KT 10SM FEW065 FEW080 16/00 A3020 RMK AO2 SLP231 T01560000 58014
KGTF 251953Z 26012KT 10SM FEW060 14/01 A3022 RMK AO2 SLP240 T01440006
KGTF 251853Z VRB06KT 10SM CLR 13/03 A3024 RMK AO2 SLP246 T01330033
KGTF 251753Z VRB04KT 10SM CLR 12/04 A3025 RMK AO2 SLP253 60000 T01170039 10122 20039 58004
KGTF 251653Z 18006KT 10SM CLR 10/06 A3025 RMK AO2 SLP257 T01000061
KGTF 251553Z 20007KT 10SM CLR 08/06 A3026 RMK AO2 SLP264 T00830056